Time;durP1;ratioP1;P1;durP2;ratioP2;P2;SDS_P1;SDS_P2;PMS_P1;PMS_P2;Temp;Humidity;BMP_temperature;BMP_pressure;BME280_temperature;BME280_humidity;BME280_pressure;Samples;Min_cycle;Max_cycle;Signal;HPM_P1;HPM_P2
2022/07/10 00:00:39;;;;;;;0.30;0.30;;;14.70;99.90;14.80;101034.00;;;;4907323;28;109246;-60
2022/07/10 00:03:05;;;;;;;0.40;0.40;;;14.70;99.90;14.90;101031.00;;;;4894142;28;107892;-59
2022/07/10 00:05:34;;;;;;;0.63;0.50;;;14.80;99.90;14.90;101040.00;;;;4913426;28;93860;-58
2022/07/10 00:08:00;;;;;;;1.00;0.60;;;14.80;99.90;14.90;101032.00;;;;4913357;28;93526;-58
2022/07/10 00:10:28;;;;;;;4.43;0.83;;;14.80;99.90;15.00;101033.00;;;;4913585;28;95580;-59
2022/07/10 00:12:54;;;;;;;0.83;0.50;;;14.80;99.90;15.00;101027.00;;;;4914226;28;92884;-59
2022/07/10 00:15:20;;;;;;;1.13;0.53;;;14.90;99.90;15.00;101033.00;;;;4913242;28;107839;-58
2022/07/10 00:17:46;;;;;;;0.33;0.33;;;14.90;99.90;15.00;101036.00;;;;4913917;28;93959;-58
2022/07/10 00:20:14;;;;;;;0.47;0.47;;;14.90;99.90;15.00;101036.00;;;;4917129;28;92786;-58
2022/07/10 00:22:40;;;;;;;0.50;0.50;;;14.90;99.90;15.00;101043.00;;;;4914327;28;93016;-59
2022/07/10 00:25:10;;;;;;;0.60;0.50;;;14.90;99.90;15.00;101044.00;;;;4913448;28;93895;-58
2022/07/10 00:27:36;;;;;;;0.43;0.43;;;14.90;99.90;15.00;101046.00;;;;4913641;28;93424;-58
2022/07/10 00:30:02;;;;;;;0.30;0.30;;;14.90;99.90;14.90;101035.00;;;;4913102;28;105757;-58
2022/07/10 00:32:28;;;;;;;0.40;0.40;;;14.80;99.90;14.90;101038.00;;;;4897986;28;92787;-58
2022/07/10 00:34:54;;;;;;;1.80;0.57;;;14.80;99.90;14.80;101030.00;;;;4916051;28;112868;-59
2022/07/10 00:37:21;;;;;;;0.50;0.50;;;15.00;99.90;14.80;101039.00;;;;4916088;28;120499;-58
2022/07/10 00:39:47;;;;;;;0.93;0.40;;;14.80;99.90;14.80;101032.00;;;;4917025;28;92952;-58
2022/07/10 00:42:15;;;;;;;0.23;0.23;;;14.70;99.90;14.80;101029.00;;;;4916811;28;94237;-59
2022/07/10 00:44:42;;;;;;;0.83;0.60;;;14.70;99.90;14.70;101031.00;;;;4898321;28;93311;-59
2022/07/10 00:47:10;;;;;;;0.40;0.40;;;14.60;99.90;14.70;101034.00;;;;4916644;28;92883;-58
2022/07/10 00:49:38;;;;;;;2.00;1.13;;;14.60;99.90;14.60;101039.00;;;;4914947;28;92894;-59
2022/07/10 00:52:08;;;;;;;1.40;0.47;;;14.60;99.90;14.60;101029.00;;;;4897824;28;92845;-60
2022/07/10 00:54:35;;;;;;;0.60;0.57;;;14.60;99.90;14.50;101023.00;;;;4897070;28;93701;-58
2022/07/10 00:57:05;;;;;;;3.27;1.10;;;14.80;99.90;14.40;101017.00;;;;4895202;28;93154;-56
2022/07/10 00:59:31;;;;;;;0.50;0.30;;;14.40;99.90;14.30;101025.00;;;;4897204;28;92212;-57
2022/07/10 01:01:57;;;;;;;0.50;0.30;;;14.30;99.90;14.20;101028.00;;;;4897270;28;92926;-58
2022/07/10 01:04:24;;;;;;;2.40;1.00;;;14.20;99.90;14.10;101014.00;;;;4905928;28;100494;-59
2022/07/10 01:06:49;;;;;;;0.70;0.40;;;14.10;99.90;14.00;101024.00;;;;4915501;28;102488;-58
2022/07/10 01:09:16;;;;;;;0.87;0.50;;;14.00;99.90;14.00;101029.00;;;;4916568;28;93123;-56
2022/07/10 01:11:41;;;;;;;0.30;0.30;;;14.00;99.90;14.00;101019.00;;;;4916923;28;92918;-58
2022/07/10 01:14:08;;;;;;;0.83;0.63;;;14.00;99.90;14.00;101022.00;;;;4915246;28;123071;-59
2022/07/10 01:16:34;;;;;;;1.60;0.83;;;14.00;99.90;14.10;101026.00;;;;4915007;28;122935;-59
2022/07/10 01:19:00;;;;;;;1.13;0.50;;;14.00;99.90;14.10;101032.00;;;;4915615;28;109401;-58
2022/07/10 01:21:29;;;;;;;0.40;0.40;;;14.00;99.90;14.20;101035.00;;;;4916134;28;110000;-58
2022/07/10 01:23:55;;;;;;;0.27;0.27;;;14.10;99.90;14.20;101031.00;;;;4916554;28;92004;-58
2022/07/10 01:26:23;;;;;;;3.10;0.53;;;14.10;99.90;14.20;101029.00;;;;4914603;28;121942;-59
2022/07/10 01:28:51;;;;;;;1.33;0.47;;;14.10;99.90;14.20;101025.00;;;;4916760;28;92804;-59
2022/07/10 01:31:19;;;;;;;5.90;0.67;;;14.20;99.90;14.30;101032.00;;;;4915764;28;94219;-58
2022/07/10 01:33:46;;;;;;;0.40;0.40;;;14.20;99.90;14.30;101030.00;;;;4915954;28;94036;-58
2022/07/10 01:36:12;;;;;;;1.90;0.40;;;14.20;99.90;14.30;101027.00;;;;4897685;28;93189;-59
2022/07/10 01:38:40;;;;;;;1.23;0.60;;;14.20;99.90;14.30;101027.00;;;;4916395;28;92997;-58
2022/07/10 01:41:08;;;;;;;4.13;0.60;;;14.20;99.90;14.30;101015.00;;;;4916354;28;92763;-59
2022/07/10 01:43:36;;;;;;;0.43;0.43;;;14.20;99.90;14.30;101021.00;;;;4915489;28;93947;-58
2022/07/10 01:46:04;;;;;;;2.83;0.73;;;14.20;99.90;14.30;101018.00;;;;4915907;28;102339;-59
2022/07/10 01:48:30;;;;;;;0.53;0.53;;;14.30;99.90;14.30;101018.00;;;;4916539;28;92248;-59
2022/07/10 01:50:57;;;;;;;0.97;0.40;;;14.20;99.90;14.40;101014.00;;;;4902924;28;92607;-58
2022/07/10 01:53:22;;;;;;;0.60;0.60;;;14.30;99.90;14.30;101016.00;;;;4895703;28;115276;-58
2022/07/10 01:55:49;;;;;;;0.30;0.27;;;14.30;99.90;14.30;101025.00;;;;4895124;28;122249;-59
2022/07/10 01:58:14;;;;;;;0.67;0.67;;;14.30;99.90;14.30;101019.00;;;;4897101;28;92758;-58
2022/07/10 02:00:40;;;;;;;0.90;0.67;;;14.20;99.90;14.30;101017.00;;;;4895713;28;108902;-59
2022/07/10 02:05:50;;;;;;;0.20;0.20;;;14.20;99.90;14.30;101008.00;;;;4895463;28;92827;-59
2022/07/10 02:08:16;;;;;;;0.50;0.40;;;14.20;99.90;14.30;101008.00;;;;4895489;28;110777;-59
2022/07/10 02:10:41;;;;;;;3.47;0.90;;;14.20;99.90;14.30;101009.00;;;;4895476;28;108536;-59
2022/07/10 02:13:09;;;;;;;0.83;0.60;;;14.20;99.90;14.30;101008.00;;;;4896610;28;92817;-58
2022/07/10 02:15:35;;;;;;;0.40;0.40;;;14.20;99.90;14.30;101001.00;;;;4895998;28;93202;-59
2022/07/10 02:18:01;;;;;;;0.57;0.33;;;14.20;99.90;14.30;101008.00;;;;4896703;28;93127;-59
2022/07/10 02:20:26;;;;;;;1.17;0.70;;;14.20;99.90;14.30;101005.00;;;;4894667;28;109466;-59
2022/07/10 02:22:52;;;;;;;6.43;0.63;;;14.20;99.90;14.30;101002.00;;;;4896785;28;92987;-59
2022/07/10 02:25:18;;;;;;;1.23;0.73;;;14.20;99.90;14.30;101000.00;;;;4894316;28;121790;-58
2022/07/10 02:27:43;;;;;;;1.33;0.60;;;14.20;99.80;14.30;101008.00;;;;4896434;28;92886;-59
2022/07/10 02:30:09;;;;;;;0.40;0.20;;;14.20;99.80;14.30;101010.00;;;;4894589;28;110080;-59
2022/07/10 02:32:35;;;;;;;1.67;0.50;;;14.20;99.70;14.30;101003.00;;;;4894888;28;111422;-59
2022/07/10 02:35:01;;;;;;;1.90;0.73;;;14.20;99.70;14.30;100994.00;;;;4894810;28;121788;-58
2022/07/10 02:37:26;;;;;;;0.57;0.57;;;14.20;99.70;14.30;101000.00;;;;4893404;28;109263;-58
2022/07/10 02:39:52;;;;;;;0.60;0.43;;;14.20;99.70;14.30;100996.00;;;;4894056;28;108752;-58
2022/07/10 02:42:17;;;;;;;1.23;0.67;;;14.20;99.60;14.30;100990.00;;;;4894409;28;123214;-55
2022/07/10 02:44:43;;;;;;;2.73;0.93;;;14.20;99.60;14.30;100984.00;;;;4894026;28;122327;-58
2022/07/10 02:47:09;;;;;;;3.57;0.77;;;14.20;99.60;14.20;100990.00;;;;4895941;28;92706;-59
2022/07/10 02:49:35;;;;;;;0.83;0.73;;;14.20;99.60;14.20;100994.00;;;;4892773;28;108235;-59
2022/07/10 02:52:00;;;;;;;1.23;0.63;;;14.20;99.60;14.20;100998.00;;;;4875158;28;122003;-59
2022/07/10 02:54:26;;;;;;;0.73;0.40;;;14.20;99.50;14.30;100995.00;;;;4874674;28;105421;-59
2022/07/10 02:56:52;;;;;;;0.20;0.20;;;14.20;99.50;14.30;100995.00;;;;4875870;28;109866;-58
2022/07/10 02:59:18;;;;;;;3.63;0.70;;;14.20;99.50;14.20;100987.00;;;;4874995;28;107301;-58
2022/07/10 03:01:44;;;;;;;0.20;0.20;;;14.20;99.50;14.20;100985.00;;;;4876923;28;93266;-58
2022/07/10 03:04:09;;;;;;;0.30;0.30;;;14.20;99.50;14.20;100986.00;;;;4893767;28;123068;-59
2022/07/10 03:06:35;;;;;;;1.90;0.50;;;14.20;99.50;14.20;100984.00;;;;4894815;28;109390;-58
2022/07/10 03:09:01;;;;;;;0.47;0.47;;;14.40;99.60;14.20;100976.00;;;;4894798;28;107895;-59
2022/07/10 03:11:26;;;;;;;0.40;0.40;;;14.10;99.50;14.20;100980.00;;;;4893477;28;122154;-59
2022/07/10 03:13:52;;;;;;;2.07;0.63;;;14.20;99.50;14.30;100977.00;;;;4895065;28;101107;-59
2022/07/10 03:16:17;;;;;;;1.73;0.80;;;14.20;99.50;14.20;100978.00;;;;4894389;28;109474;-57
2022/07/10 03:18:45;;;;;;;1.53;0.70;;;14.10;99.50;14.20;100970.00;;;;4894825;28;109303;-58
2022/07/10 03:21:11;;;;;;;1.40;0.83;;;14.20;99.50;14.20;100967.00;;;;4894784;28;93304;-59
2022/07/10 03:23:39;;;;;;;0.40;0.40;;;14.20;99.50;14.20;100968.00;;;;4894497;28;106841;-59
2022/07/10 03:26:05;;;;;;;0.43;0.40;;;14.20;99.60;14.20;100979.00;;;;4894589;28;92124;-58
2022/07/10 03:28:31;;;;;;;5.40;1.13;;;14.10;99.50;14.20;100967.00;;;;4895261;28;93076;-58
2022/07/10 03:30:57;;;;;;;0.43;0.43;;;14.10;99.50;14.20;100968.00;;;;4893669;28;123784;-58
2022/07/10 03:33:22;;;;;;;1.33;0.67;;;14.10;99.60;14.20;100970.00;;;;4893922;28;120615;-59
2022/07/10 03:35:48;;;;;;;0.83;0.40;;;14.10;99.70;14.20;100966.00;;;;4910897;28;92825;-59
2022/07/10 03:38:14;;;;;;;0.30;0.30;;;14.10;99.70;14.20;100970.00;;;;4914017;28;99796;-59
2022/07/10 03:40:40;;;;;;;0.40;0.33;;;14.10;99.70;14.20;100958.00;;;;4895852;28;93497;-56
2022/07/10 03:43:06;;;;;;;0.60;0.47;;;14.10;99.70;14.20;100961.00;;;;4914355;28;94165;-59
2022/07/10 03:45:31;;;;;;;0.63;0.53;;;14.10;99.80;14.30;100955.00;;;;4913435;28;93084;-59
2022/07/10 03:47:57;;;;;;;0.30;0.30;;;14.10;99.80;14.30;100955.00;;;;4913729;28;94031;-59
2022/07/10 03:50:23;;;;;;;0.83;0.37;;;14.20;99.80;14.30;100954.00;;;;4896921;28;93254;-59
2022/07/10 03:52:49;;;;;;;2.97;0.70;;;14.20;99.80;14.30;100957.00;;;;4894455;28;93214;-58
2022/07/10 03:55:14;;;;;;;1.70;0.53;;;14.20;99.80;14.30;100962.00;;;;4894227;28;109219;-59
2022/07/10 03:58:02;;;;;;;0.70;0.60;;;14.20;99.90;14.30;100963.00;;;;4894043;28;108932;-58
2022/07/10 04:00:29;;;;;;;3.40;0.77;;;14.20;99.90;14.30;100960.00;;;;4895313;28;94087;-59
2022/07/10 04:03:01;;;;;;;1.60;0.27;;;14.20;99.90;14.40;100962.00;;;;4875479;28;94111;-60
2022/07/10 04:05:28;;;;;;;2.63;0.47;;;14.30;99.90;14.40;100968.00;;;;4912610;28;94316;-60
2022/07/10 04:07:56;;;;;;;7.57;0.63;;;14.30;99.90;14.40;100967.00;;;;4914357;28;92913;-58
2022/07/10 04:10:23;;;;;;;0.57;0.57;;;14.30;99.90;14.40;100966.00;;;;4913161;28;93860;-60
2022/07/10 04:12:49;;;;;;;0.70;0.50;;;14.30;99.90;14.50;100969.00;;;;4913510;28;93695;-60
2022/07/10 04:15:16;;;;;;;2.27;0.50;;;14.30;99.90;14.50;100970.00;;;;4914108;28;92097;-59
2022/07/10 04:17:42;;;;;;;0.83;0.73;;;14.80;99.90;14.50;100968.00;;;;4914566;28;92765;-58
2022/07/10 04:20:08;;;;;;;0.40;0.30;;;14.40;99.90;14.50;100967.00;;;;4913336;28;92695;-60
2022/07/10 04:22:35;;;;;;;0.03;0.03;;;14.40;99.90;14.50;100962.00;;;;4912715;28;93675;-59
2022/07/10 04:25:01;;;;;;;2.00;0.20;;;14.40;99.90;14.50;100954.00;;;;4913467;28;92699;-60
2022/07/10 04:27:26;;;;;;;1.13;0.73;;;14.40;99.90;14.50;100949.00;;;;4913705;28;92521;-59
2022/07/10 04:29:52;;;;;;;0.27;0.27;;;14.40;99.90;14.50;100943.00;;;;4912522;28;123188;-58
2022/07/10 04:32:19;;;;;;;0.40;0.40;;;14.40;99.90;14.50;100953.00;;;;4913400;28;100464;-58
2022/07/10 04:34:44;;;;;;;0.30;0.20;;;14.40;99.90;14.50;100948.00;;;;4912565;28;111439;-58
2022/07/10 04:37:10;;;;;;;0.50;0.30;;;14.40;99.90;14.50;100956.00;;;;4910309;28;108027;-59
2022/07/10 04:39:37;;;;;;;0.17;0.17;;;14.40;99.90;14.50;100956.00;;;;4913096;28;121990;-59
2022/07/10 04:42:04;;;;;;;2.90;0.40;;;14.40;99.90;14.50;100958.00;;;;4913494;28;92934;-59
2022/07/10 04:44:31;;;;;;;0.10;0.10;;;14.40;99.90;14.50;100961.00;;;;4913405;28;98089;-58
2022/07/10 04:46:56;;;;;;;0.57;0.30;;;14.40;99.90;14.60;100958.00;;;;4913477;28;93777;-60
2022/07/10 04:49:22;;;;;;;1.70;0.53;;;14.50;99.90;14.60;100958.00;;;;4903455;28;123389;-59
2022/07/10 04:51:48;;;;;;;0.73;0.73;;;14.40;99.90;14.60;100962.00;;;;4893034;28;96375;-59
2022/07/10 04:54:13;;;;;;;2.47;0.50;;;14.50;99.90;14.60;100960.00;;;;4893442;28;109840;-59
2022/07/10 04:56:39;;;;;;;1.30;0.30;;;14.50;99.90;14.60;100963.00;;;;4891937;28;92868;-60
2022/07/10 04:59:05;;;;;;;0.47;0.10;;;14.50;99.90;14.60;100969.00;;;;4892470;28;124605;-60
2022/07/10 05:01:30;;;;;;;2.53;0.40;;;14.50;99.90;14.60;100954.00;;;;4892506;28;123103;-60
2022/07/10 05:03:56;;;;;;;0.40;0.40;;;14.50;99.90;14.70;100966.00;;;;4894076;28;112260;-59
2022/07/10 05:06:21;;;;;;;0.40;0.40;;;14.50;99.90;14.70;100956.00;;;;4892725;28;108325;-61
2022/07/10 05:08:48;;;;;;;0.57;0.30;;;14.60;99.90;14.70;100959.00;;;;4892943;28;122654;-59
2022/07/10 05:11:14;;;;;;;1.73;0.80;;;14.60;99.90;14.70;100957.00;;;;4892439;28;94045;-60
2022/07/10 05:13:39;;;;;;;1.57;1.00;;;14.60;99.90;14.80;100951.00;;;;4875858;28;93314;-59
2022/07/10 05:16:05;;;;;;;0.30;0.30;;;14.60;99.90;14.80;100949.00;;;;4892702;28;103564;-60
2022/07/10 05:18:31;;;;;;;0.57;0.43;;;14.70;99.90;14.80;100954.00;;;;4891407;28;105075;-59
2022/07/10 05:20:57;;;;;;;5.90;0.60;;;14.70;99.90;14.80;100951.00;;;;4893889;28;101245;-60
2022/07/10 05:23:23;;;;;;;0.23;0.23;;;14.70;99.90;14.80;100959.00;;;;4895805;28;109224;-60
2022/07/10 05:25:49;;;;;;;0.40;0.30;;;14.70;99.90;14.90;100961.00;;;;4896381;28;92731;-60
2022/07/10 05:28:14;;;;;;;0.30;0.20;;;14.70;99.90;14.90;100969.00;;;;4895999;28;109502;-60
2022/07/10 05:30:41;;;;;;;0.57;0.47;;;14.70;99.90;15.00;100959.00;;;;4895696;28;107688;-59
2022/07/10 05:33:07;;;;;;;0.50;0.40;;;14.80;99.90;15.00;100954.00;;;;4896158;28;92940;-59
2022/07/10 05:35:33;;;;;;;6.60;0.40;;;14.90;99.90;15.10;100947.00;;;;4895377;28;98944;-59
2022/07/10 05:37:59;;;;;;;1.53;0.67;;;14.90;99.90;15.10;100960.00;;;;4895778;28;123542;-58
2022/07/10 05:40:26;;;;;;;0.73;0.40;;;15.00;99.90;15.20;100946.00;;;;4896468;28;93451;-60
2022/07/10 05:42:52;;;;;;;0.33;0.27;;;15.00;99.90;15.20;100955.00;;;;4896875;28;93024;-59
2022/07/10 05:45:18;;;;;;;3.27;0.47;;;15.10;99.90;15.20;100944.00;;;;4897194;28;92914;-59
2022/07/10 05:47:44;;;;;;;0.63;0.47;;;15.10;99.90;15.20;100949.00;;;;4896407;28;94195;-56
2022/07/10 05:50:11;;;;;;;0.17;0.17;;;15.10;99.90;15.30;100947.00;;;;4889727;28;93698;-59
2022/07/10 05:52:37;;;;;;;0.35;0.32;;;15.20;99.90;15.40;100953.00;;;;4877559;28;92109;-58
2022/07/10 05:55:04;;;;;;;0.22;0.22;;;15.20;99.80;15.40;100953.00;;;;4877037;28;101015;-58
2022/07/10 05:57:34;;;;;;;1.08;0.55;;;15.30;99.80;15.50;100951.00;;;;4876606;28;102894;-59
2022/07/10 06:00:00;;;;;;;0.30;0.30;;;15.40;99.80;15.60;100961.00;;;;4876091;28;93948;-58
2022/07/10 06:02:26;;;;;;;0.60;0.47;;;15.40;99.70;15.80;100960.00;;;;4878840;28;95668;-59
2022/07/10 06:04:52;;;;;;;1.03;0.30;;;15.60;99.60;15.90;100966.00;;;;4876984;28;93033;-58
2022/07/10 06:07:18;;;;;;;0.47;0.47;;;15.70;99.30;16.10;100969.00;;;;4892608;28;94015;-58
2022/07/10 06:09:44;;;;;;;0.65;0.43;;;15.80;99.10;16.20;100957.00;;;;4894846;28;119563;-59
2022/07/10 06:12:10;;;;;;;0.38;0.25;;;16.00;98.60;16.20;100959.00;;;;4890151;28;110106;-59
2022/07/10 06:14:35;;;;;;;0.30;0.30;;;16.10;98.40;16.30;100965.00;;;;4006281;28;10001094;-59
2022/07/10 06:17:01;;;;;;;1.45;0.25;;;16.10;97.70;16.30;100962.00;;;;4874002;28;91887;-57
2022/07/10 06:19:27;;;;;;;1.15;0.60;;;16.20;97.50;16.30;100961.00;;;;4878824;28;92715;-59
2022/07/10 06:24:38;;;;;;;2.58;0.50;;;16.20;97.60;16.40;100969.00;;;;4874396;28;93807;-60
2022/07/10 06:27:04;;;;;;;3.63;0.65;;;16.20;97.30;16.40;100975.00;;;;4872771;28;93290;-60
2022/07/10 06:29:30;;;;;;;8.35;0.40;;;16.30;97.20;16.50;100956.00;;;;4872868;28;92773;-61
2022/07/10 06:31:56;;;;;;;0.55;0.50;;;16.30;96.60;16.60;100966.00;;;;4865001;28;114846;-60
2022/07/10 06:34:21;;;;;;;3.40;0.75;;;16.40;96.40;16.70;100956.00;;;;4879227;28;120852;-60
2022/07/10 06:36:47;;;;;;;0.88;0.77;;;16.50;95.70;16.80;100961.00;;;;4877903;28;110790;-61
2022/07/10 06:39:13;;;;;;;0.28;0.28;;;16.70;95.70;17.00;100960.00;;;;4872784;28;108387;-60
2022/07/10 06:41:38;;;;;;;0.13;0.10;;;16.80;95.30;17.10;100951.00;;;;4871520;28;121838;-61
2022/07/10 06:44:05;;;;;;;2.28;0.50;;;16.90;94.70;17.20;100958.00;;;;4872790;28;93076;-60
2022/07/10 06:46:32;;;;;;;0.52;0.22;;;17.00;94.20;17.20;100963.00;;;;4876638;28;93003;-59
2022/07/10 06:48:59;;;;;;;1.23;0.32;;;17.10;94.00;17.30;100952.00;;;;4876398;28;108084;-60
2022/07/10 06:51:24;;;;;;;3.40;0.10;;;17.10;94.00;17.50;100944.00;;;;4855111;28;100152;-61
2022/07/10 06:53:50;;;;;;;0.10;0.10;;;17.30;94.00;17.80;100963.00;;;;4871782;28;121265;-60
2022/07/10 06:56:16;;;;;;;3.30;0.95;;;17.60;93.00;18.00;100957.00;;;;4875020;28;109711;-60
2022/07/10 06:58:42;;;;;;;0.30;0.30;;;17.70;92.80;18.10;100946.00;;;;4877143;28;96277;-61
2022/07/10 07:01:08;;;;;;;1.30;0.68;;;17.90;91.70;18.20;100959.00;;;;4871887;28;122990;-59
2022/07/10 07:03:34;;;;;;;2.60;0.22;;;18.00;90.80;18.30;100954.00;;;;4878124;28;93801;-59
2022/07/10 07:06:00;;;;;;;0.25;0.25;;;18.10;90.80;18.60;100953.00;;;;4876692;28;92039;-59
2022/07/10 07:08:25;;;;;;;0.30;0.20;;;18.30;90.50;18.80;100949.00;;;;4870544;28;108641;-60
2022/07/10 07:10:51;;;;;;;0.30;0.30;;;18.60;89.30;18.90;100956.00;;;;4870419;28;122608;-61
2022/07/10 07:13:17;;;;;;;0.25;0.22;;;18.80;86.80;19.00;100950.00;;;;4870896;28;122458;-61
2022/07/10 07:15:49;;;;;;;0.13;0.13;;;18.80;84.70;18.90;100961.00;;;;4876255;28;104251;-61
2022/07/10 07:18:16;;;;;;;0.20;0.20;;;18.80;84.70;18.80;100959.00;;;;4875165;28;92810;-60
2022/07/10 07:23:27;;;;;;;0.22;0.22;;;18.60;83.20;18.60;100956.00;;;;4877815;28;93102;-61
2022/07/10 07:25:53;;;;;;;0.55;0.30;;;18.50;83.30;18.70;100964.00;;;;4873736;28;92809;-60
2022/07/10 07:28:19;;;;;;;0.30;0.30;;;18.50;82.50;18.60;100961.00;;;;4875480;28;93097;-60
2022/07/10 07:30:47;;;;;;;1.45;0.10;;;18.50;79.90;18.60;100959.00;;;;4872520;28;92347;-61
2022/07/10 07:33:13;;;;;;;0.90;0.65;;;18.50;80.30;18.50;100962.00;;;;4870904;28;93060;-61
2022/07/10 07:35:39;;;;;;;0.55;0.20;;;18.40;80.80;18.60;100964.00;;;;4886800;28;93318;-61
2022/07/10 07:38:05;;;;;;;0.43;0.43;;;18.40;79.30;18.40;100973.00;;;;4890140;28;93793;-60
2022/07/10 07:40:32;;;;;;;2.72;0.85;;;18.40;78.60;18.30;100976.00;;;;4872124;28;122828;-60
2022/07/10 07:42:58;;;;;;;0.38;0.20;;;18.20;77.90;18.20;100973.00;;;;4905820;28;95767;-61
2022/07/10 07:45:25;;;;;;;0.10;0.10;;;18.10;77.30;18.10;100970.00;;;;4892507;28;92727;-60
2022/07/10 07:47:57;;;;;;;2.15;1.08;;;18.00;78.00;18.00;100965.00;;;;4890534;28;96996;-60
2022/07/10 07:50:26;;;;;;;0.73;0.63;;;17.90;79.20;18.00;100966.00;;;;4887337;28;93802;-61
2022/07/10 07:52:52;;;;;;;0.45;0.30;;;17.90;79.50;18.10;100961.00;;;;4890783;28;93281;-59
2022/07/10 07:55:20;;;;;;;1.27;0.75;;;17.90;80.10;18.20;100972.00;;;;4890881;28;92711;-59
2022/07/10 07:57:47;;;;;;;1.95;0.50;;;18.00;80.60;18.40;100945.00;;;;4891661;28;93080;-60
2022/07/10 08:00:17;;;;;;;0.63;0.40;;;18.10;81.30;18.80;100959.00;;;;4872390;28;95279;-61
2022/07/10 08:02:43;;;;;;;0.77;0.50;;;18.40;80.60;19.10;100962.00;;;;4890480;28;94200;-61
2022/07/10 08:05:09;;;;;;;0.73;0.52;;;18.80;78.30;19.20;100957.00;;;;4890431;28;93757;-59
2022/07/10 08:07:40;;;;;;;0.65;0.40;;;19.00;76.60;19.20;100966.00;;;;4890385;28;92922;-61
2022/07/10 08:10:09;;;;;;;6.57;1.17;;;19.00;74.60;19.10;100962.00;;;;4889188;28;95600;-60
2022/07/10 08:12:35;;;;;;;0.77;0.50;;;19.00;74.00;18.90;100958.00;;;;4889774;28;92945;-60
2022/07/10 08:15:01;;;;;;;0.77;0.68;;;18.80;74.10;18.70;100957.00;;;;4891671;28;93034;-57
2022/07/10 08:17:27;;;;;;;1.35;0.60;;;18.70;74.80;18.60;100955.00;;;;4893064;28;92909;-59
2022/07/10 08:19:53;;;;;;;0.13;0.13;;;18.50;75.00;18.40;100963.00;;;;4890437;28;93610;-60
2022/07/10 08:22:19;;;;;;;0.80;0.40;;;18.40;75.50;18.30;100956.00;;;;4890722;28;99150;-57
2022/07/10 08:24:45;;;;;;;0.75;0.63;;;18.20;75.90;18.20;100965.00;;;;4888932;28;109717;-60
2022/07/10 08:27:12;;;;;;;1.77;0.50;;;18.10;76.30;18.10;100958.00;;;;4890166;28;93913;-60
2022/07/10 08:29:38;;;;;;;0.52;0.45;;;18.00;76.80;18.10;100948.00;;;;4882461;28;94181;-61
2022/07/10 08:32:05;;;;;;;2.53;0.40;;;17.90;77.30;18.10;100952.00;;;;4888720;28;112466;-61
2022/07/10 08:34:32;;;;;;;2.92;0.50;;;18.00;77.60;18.10;100955.00;;;;4890073;28;93390;-61
2022/07/10 08:36:58;;;;;;;0.30;0.17;;;18.00;78.10;18.20;100952.00;;;;4890410;28;92882;-59
2022/07/10 08:39:24;;;;;;;1.75;0.30;;;18.00;78.40;18.20;100955.00;;;;4889123;28;93743;-61
2022/07/10 08:41:50;;;;;;;0.80;0.65;;;18.00;78.60;18.20;100955.00;;;;4889805;28;93215;-61
2022/07/10 08:44:19;;;;;;;1.25;0.68;;;18.10;78.60;18.20;100961.00;;;;4871816;28;109725;-59
2022/07/10 08:46:45;;;;;;;1.38;0.40;;;18.00;78.40;18.10;100960.00;;;;4889851;28;92868;-59
2022/07/10 08:49:13;;;;;;;2.05;0.63;;;17.90;76.60;18.10;100960.00;;;;4889231;28;122178;-59
2022/07/10 08:51:54;;;;;;;0.90;0.32;;;18.00;76.90;18.00;100970.00;;;;4887335;28;96142;-59
2022/07/10 08:54:20;;;;;;;0.50;0.40;;;17.90;77.30;17.90;100968.00;;;;4907348;28;101591;-59
2022/07/10 08:56:47;;;;;;;0.65;0.32;;;17.80;78.00;17.80;100971.00;;;;4875362;28;95140;-61
2022/07/10 08:59:14;;;;;;;1.50;0.47;;;17.70;78.80;17.70;100973.00;;;;4891722;28;123219;-60
2022/07/10 09:01:40;;;;;;;4.25;1.00;;;17.60;79.80;17.60;100969.00;;;;4893062;28;94154;-59
2022/07/10 09:04:06;;;;;;;0.70;0.22;;;17.50;81.10;17.50;100975.00;;;;4892363;28;107059;-60
2022/07/10 09:06:32;;;;;;;0.28;0.28;;;17.40;80.90;17.50;100969.00;;;;4892604;28;94006;-60
2022/07/10 09:09:06;;;;;;;1.65;0.63;;;17.40;81.40;17.60;100962.00;;;;4892229;28;122093;-60
2022/07/10 09:11:33;;;;;;;0.20;0.20;;;17.40;81.70;17.70;100965.00;;;;4892873;28;93044;-60
2022/07/10 09:14:07;;;;;;;1.45;0.57;;;17.50;82.00;17.90;100955.00;;;;4893405;28;92836;-60
2022/07/10 09:16:41;;;;;;;0.73;0.60;;;17.60;81.90;18.10;100962.00;;;;4892887;28;95377;-61
2022/07/10 09:19:25;;;;;;;0.60;0.60;;;17.80;81.80;18.30;100947.00;;;;4887233;28;93364;-61
2022/07/10 09:21:54;;;;;;;0.88;0.47;;;18.00;79.90;18.40;100956.00;;;;4893325;28;94420;-60
2022/07/10 09:24:21;;;;;;;1.30;0.50;;;18.20;78.30;18.30;100957.00;;;;4892326;28;92916;-61
2022/07/10 09:26:59;;;;;;;0.30;0.20;;;18.20;79.00;18.20;100962.00;;;;4891952;28;92783;-59
2022/07/10 09:29:25;;;;;;;0.98;0.50;;;18.10;79.30;18.00;100966.00;;;;4892760;28;93936;-60
2022/07/10 09:31:53;;;;;;;1.13;0.80;;;17.90;79.20;17.80;100980.00;;;;4892326;28;93861;-59
2022/07/10 09:34:37;;;;;;;1.70;0.85;;;17.80;79.80;17.70;100968.00;;;;4893349;28;92672;-59
2022/07/10 09:37:29;;;;;;;0.40;0.20;;;17.70;80.30;17.70;100977.00;;;;4892546;28;93188;-60
2022/07/10 09:40:00;;;;;;;0.68;0.32;;;17.60;81.10;17.80;100978.00;;;;4892464;28;92902;-60
2022/07/10 09:42:44;;;;;;;0.98;0.40;;;17.70;81.50;18.00;100967.00;;;;4887703;28;93919;-62
2022/07/10 09:45:09;;;;;;;1.42;0.90;;;17.80;80.80;18.20;100963.00;;;;4891507;28;110427;-60
2022/07/10 09:47:35;;;;;;;0.45;0.40;;;17.90;80.20;18.40;100968.00;;;;4892854;28;93207;-60
2022/07/10 09:50:01;;;;;;;2.55;0.80;;;18.10;79.00;18.60;100956.00;;;;4891984;28;122600;-60
2022/07/10 09:52:28;;;;;;;1.65;0.63;;;18.30;78.60;18.80;100968.00;;;;4890891;28;123207;-61
2022/07/10 09:54:59;;;;;;;2.75;0.60;;;18.50;77.40;18.80;100973.00;;;;4893623;28;92976;-59
2022/07/10 09:57:28;;;;;;;1.42;0.50;;;18.50;76.60;18.80;100969.00;;;;4874776;28;93062;-61
2022/07/10 09:59:55;;;;;;;1.38;0.68;;;18.60;77.20;18.80;100968.00;;;;4873826;28;122089;-61
2022/07/10 10:02:21;;;;;;;3.53;0.77;;;18.60;76.40;18.70;100972.00;;;;4874275;28;92971;-60
2022/07/10 10:04:49;;;;;;;0.40;0.40;;;18.50;75.90;18.60;100977.00;;;;4892704;28;94002;-60
2022/07/10 10:07:18;;;;;;;3.85;0.63;;;18.50;75.70;18.60;100975.00;;;;4905654;28;105912;-61
2022/07/10 10:09:56;;;;;;;0.40;0.30;;;18.40;75.50;18.60;100980.00;;;;4890900;28;119233;-59
2022/07/10 10:12:42;;;;;;;0.93;0.40;;;18.40;75.00;18.50;100980.00;;;;4891672;28;94234;-60
2022/07/10 10:15:11;;;;;;;0.10;0.10;;;18.40;74.70;18.50;100974.00;;;;4891885;28;100766;-60
2022/07/10 10:17:40;;;;;;;0.13;0.13;;;18.40;73.70;18.50;100980.00;;;;4875417;28;93015;-60
2022/07/10 10:22:55;;;;;;;1.38;0.28;;;18.40;73.80;18.70;100983.00;;;;4875597;28;93095;-61
2022/07/10 10:25:23;;;;;;;0.43;0.43;;;18.40;73.50;18.80;100981.00;;;;4892378;28;92352;-61
2022/07/10 10:27:50;;;;;;;0.82;0.65;;;18.60;73.90;19.00;100975.00;;;;4891276;28;104034;-61
2022/07/10 10:30:17;;;;;;;1.33;0.63;;;18.70;72.20;19.10;100965.00;;;;4890839;28;123027;-61
2022/07/10 10:32:42;;;;;;;0.32;0.32;;;18.80;70.80;19.30;100976.00;;;;4871632;28;112220;-61
2022/07/10 10:35:09;;;;;;;0.77;0.77;;;19.00;71.20;19.50;100965.00;;;;4884515;28;109438;-61
2022/07/10 10:37:36;;;;;;;1.50;0.25;;;19.20;71.10;19.70;100976.00;;;;4874266;28;93140;-61
2022/07/10 10:40:07;;;;;;;0.73;0.73;;;19.40;70.80;19.80;100972.00;;;;4891495;28;94289;-61
2022/07/10 10:42:44;;;;;;;6.50;0.77;;;19.50;70.60;19.70;100981.00;;;;4890978;28;93233;-61
2022/07/10 10:45:33;;;;;;;1.80;0.55;;;19.50;73.30;19.40;100984.00;;;;4891679;28;93184;-60
2022/07/10 10:48:06;;;;;;;0.47;0.47;;;19.30;73.70;19.10;100981.00;;;;4885456;28;92820;-62
2022/07/10 10:50:53;;;;;;;1.90;0.38;;;19.00;74.00;18.80;100973.00;;;;4891975;28;93378;-61
2022/07/10 10:53:30;;;;;;;6.32;0.88;;;18.80;74.80;18.70;100973.00;;;;4890313;28;92906;-61
2022/07/10 10:56:07;;;;;;;1.20;0.73;;;18.60;75.10;18.70;100981.00;;;;4891785;28;92682;-62